Cagliari, Italy

11:25 PM CEST del 24 Agosto 2016 (GMT +0200)
Tuvixeddu | | Change Station

Alt. 89 ft 39.23 °N, 9.10 °E | Updated 40 seconds ago

Clear
Sereno
76.3 °F
Sembra 78 °F
N
1.0
Vento Variabile Vento da ENE
Gusts 5.0 mph

Oggi
Massima -- | Minima -- °F
--% Possibilità di precip.
Ieri
Massima -- | Minima -- °F
Precip. -- in
Pressione 30.04 in
Visibilità -9999.0 miglia
Nuvole
Indice di calore 78 °F
Punto di rugiada 59 °F
Umidità 56%
Piovosità 0.00 in
Spessore del manto nevoso Non disponibile.
6:45 AM 8:06 PM
Gobba a levante, 53% visible
METAR LIEE 242120Z 10006KT CAVOK 25/14 Q1017
Pressione 30.04 in
Visibilità -9999.0 miglia
Nuvole
Indice di calore 78 °F
Punto di rugiada 59 °F
Umidità 56%
Piovosità 0.00 in
Spessore del manto nevoso Non disponibile.
6:45 AM 8:06 PM
Gobba a levante, 53% visible
METAR LIEE 242120Z 10006KT CAVOK 25/14 Q1017

10-Day Weather Forecast

×

Almanac

Astronomia

Aug. 24, 2016 Alba Tramonto
Ora attuale
Crepuscolo civile
Crepuscolo nautico
Crepuscolo astronomico
Luna
Estensione della luce visibile
Lunghezza del giorno
Tomorrow will be .
, % of the Moon is Illuminated

Gli estremi di oggi

Massime Regione Minime Regione

Community

WunderPhotos

Upload Photos

1,934,719 foto caricate!

WunderBlog® & News

Nearby

Qualità dell'aria

  Qualità dell'aria Indice AQ Inquinante
Not available.

Profondità neve

Stazione Profondità Altitudine

Attività sismica

Città  Distanza Mag. Data & Ora
Minimo Magnitudo Mostrato è 2.5.

Temperature delle acque costiere

Località Temperatura

Stations

Stazioni meteo nelle vicinanze

Ubicazione della stazione Temp. Raffreddamento del vento Punto di rugiada Umidità Vento Precip. Alt. Aggiornato Tipo